createdAt,value
2023-01-11T00:01:54.679Z,96535.97
2023-01-11T00:04:21.410Z,96530.94
2023-01-11T00:06:47.997Z,96538.03
2023-01-11T00:09:16.157Z,96535.81
2023-01-11T00:11:42.722Z,96524.28
2023-01-11T00:14:09.238Z,96530.97
2023-01-11T00:16:36.027Z,96532.84
2023-01-11T00:19:02.757Z,96527.72
2023-01-11T00:21:29.259Z,96530.94
2023-01-11T00:23:56.104Z,96534.50
2023-01-11T00:26:22.581Z,96528.00
2023-01-11T00:28:49.713Z,96532.72
2023-01-11T00:31:16.616Z,96531.16
2023-01-11T00:33:43.173Z,96531.72
2023-01-11T00:36:09.908Z,96531.38
2023-01-11T00:38:51.912Z,96532.69
2023-01-11T00:41:37.137Z,96538.22
2023-01-11T00:44:22.690Z,96533.00
2023-01-11T00:47:07.950Z,96526.88
2023-01-11T00:49:34.842Z,96536.22
2023-01-11T00:52:01.634Z,96536.03
2023-01-11T00:54:28.120Z,96538.16
2023-01-11T00:56:54.650Z,96548.69
2023-01-11T00:59:21.140Z,96556.72
2023-01-11T01:01:47.646Z,96553.41
2023-01-11T01:04:14.229Z,96547.44
2023-01-11T01:06:40.802Z,96552.19
2023-01-11T01:09:07.502Z,96537.25
2023-01-11T01:11:34.023Z,96546.84
2023-01-11T01:14:18.908Z,96556.44
2023-01-11T01:16:47.367Z,96557.22
2023-01-11T01:19:14.461Z,96546.00
2023-01-11T01:21:40.941Z,96550.31
2023-01-11T01:24:07.542Z,96543.97
2023-01-11T01:26:34.134Z,96542.13
2023-01-11T01:29:00.649Z,96548.38
2023-01-11T01:31:27.213Z,96549.47
2023-01-11T01:33:53.761Z,96548.06
2023-01-11T01:36:20.313Z,96541.97
2023-01-11T01:38:46.849Z,96539.44
2023-01-11T01:41:13.406Z,96540.13
2023-01-11T01:43:59.717Z,96527.06
2023-01-11T01:46:27.640Z,96529.59
2023-01-11T01:48:58.411Z,96522.66
2023-01-11T01:51:27.493Z,96521.44
2023-01-11T01:53:56.608Z,96522.19
2023-01-11T01:56:25.797Z,96515.09
2023-01-11T01:58:55.676Z,96517.31
2023-01-11T02:01:40.555Z,96506.50
2023-01-11T02:04:10.665Z,96517.97
2023-01-11T02:06:37.601Z,96503.31
2023-01-11T02:13:21.667Z,96508.56
2023-01-11T02:16:08.060Z,96500.88
2023-01-11T02:18:35.952Z,96502.81
2023-01-11T02:21:05.556Z,96499.94
2023-01-11T02:23:52.677Z,96503.56
2023-01-11T02:26:19.164Z,96502.56
2023-01-11T02:28:54.353Z,96502.66
2023-01-11T02:31:44.595Z,96493.22
2023-01-11T02:34:14.187Z,96492.44
2023-01-11T02:36:49.635Z,96491.38
2023-01-11T02:39:28.267Z,96485.06
2023-01-11T02:42:17.399Z,96491.50
2023-01-11T02:45:01.568Z,96494.22
2023-01-11T02:47:40.203Z,96500.44
2023-01-11T02:50:13.073Z,96495.50
2023-01-11T02:52:45.063Z,96500.72
2023-01-11T02:55:13.481Z,96501.81
2023-01-11T02:57:42.818Z,96495.06
2023-01-11T03:00:10.480Z,96492.38
2023-01-11T03:02:37.065Z,96503.00
2023-01-11T03:05:10.644Z,96512.56
2023-01-11T03:07:48.774Z,96508.22
2023-01-11T03:10:25.009Z,96515.88
2023-01-11T03:13:09.925Z,96520.22
2023-01-11T03:15:36.441Z,96527.41
2023-01-11T03:18:09.571Z,96530.94
2023-01-11T03:20:41.991Z,96537.97
2023-01-11T03:23:11.601Z,96534.47
2023-01-11T03:25:47.870Z,96527.53
2023-01-11T03:28:37.367Z,96530.16
2023-01-11T03:31:03.913Z,96533.84
2023-01-11T03:33:45.477Z,96533.94
2023-01-11T03:36:19.853Z,96528.56
2023-01-11T03:38:51.158Z,96536.16
2023-01-11T03:41:21.483Z,96532.84
2023-01-11T03:43:50.091Z,96530.16
2023-01-11T03:46:21.217Z,96526.03
2023-01-11T03:48:52.149Z,96513.75
2023-01-11T03:51:20.956Z,96517.28
2023-01-11T03:53:49.853Z,96513.16
2023-01-11T03:56:18.668Z,96512.97
2023-01-11T03:58:45.207Z,96504.22
2023-01-11T04:01:12.552Z,96493.56
2023-01-11T04:03:39.122Z,96497.16
2023-01-11T04:06:05.885Z,96492.69
2023-01-11T04:08:32.441Z,96500.00
2023-01-11T04:10:58.960Z,96496.91
2023-01-11T04:13:25.562Z,96499.78
2023-01-11T04:15:52.980Z,96504.81
2023-01-11T04:18:19.533Z,96507.59
2023-01-11T04:20:46.415Z,96503.31
2023-01-11T04:23:13.048Z,96494.88
2023-01-11T04:25:39.557Z,96508.19
2023-01-11T04:28:06.083Z,96504.81
2023-01-11T04:30:32.670Z,96514.25
2023-01-11T04:32:59.330Z,96518.47
2023-01-11T04:35:26.247Z,96518.28
2023-01-11T04:37:56.044Z,96513.16
2023-01-11T04:40:22.870Z,96513.31
2023-01-11T04:42:49.390Z,96509.50
2023-01-11T04:45:15.899Z,96509.75
2023-01-11T04:47:42.428Z,96509.69
2023-01-11T04:50:09.412Z,96515.81
2023-01-11T04:52:35.967Z,96517.75
2023-01-11T04:55:02.507Z,96511.84
2023-01-11T04:57:28.995Z,96510.00
2023-01-11T04:59:55.546Z,96506.81
2023-01-11T05:02:22.068Z,96502.41
2023-01-11T05:04:48.563Z,96493.59
2023-01-11T05:07:15.110Z,96498.81
2023-01-11T05:09:41.651Z,96484.06
2023-01-11T05:12:08.206Z,96489.47
2023-01-11T05:14:34.812Z,96475.56
2023-01-11T05:17:01.306Z,96479.84
2023-01-11T05:19:27.829Z,96477.16
2023-01-11T05:21:54.374Z,96480.72
2023-01-11T05:24:20.880Z,96484.06
2023-01-11T05:26:50.229Z,96490.06
2023-01-11T05:29:16.824Z,96491.25
2023-01-11T05:31:43.527Z,96497.91
2023-01-11T05:34:12.142Z,96504.19
2023-01-11T05:36:39.279Z,96505.44
2023-01-11T05:39:06.298Z,96507.72
2023-01-11T05:41:33.110Z,96505.03
2023-01-11T05:44:18.126Z,96502.59
2023-01-11T05:46:44.758Z,96501.03
2023-01-11T05:49:12.507Z,96505.00
2023-01-11T05:51:39.394Z,96503.84
2023-01-11T05:54:07.306Z,96500.41
2023-01-11T05:56:34.152Z,96503.94
2023-01-11T05:59:00.670Z,96499.50
2023-01-11T06:01:27.265Z,96498.97
2023-01-11T06:03:53.780Z,96498.97
2023-01-11T06:06:20.768Z,96500.81
2023-01-11T06:08:47.290Z,96496.97
2023-01-11T06:11:14.933Z,96506.72
2023-01-11T06:13:41.594Z,96501.66
2023-01-11T06:16:10.788Z,96513.75
2023-01-11T06:18:38.694Z,96508.41
2023-01-11T06:21:05.994Z,96511.84
2023-01-11T06:23:33.452Z,96516.13
2023-01-11T06:26:07.379Z,96513.91
2023-01-11T06:28:33.927Z,96508.69
2023-01-11T06:31:00.917Z,96518.13
2023-01-11T06:33:28.063Z,96508.09
2023-01-11T06:35:55.059Z,96514.09
2023-01-11T06:38:22.245Z,96509.69
2023-01-11T06:40:53.391Z,96514.78
2023-01-11T06:43:20.113Z,96519.03
2023-01-11T06:45:46.865Z,96523.19
2023-01-11T06:48:13.367Z,96515.06
2023-01-11T06:50:39.951Z,96514.22
2023-01-11T06:53:06.441Z,96513.28
2023-01-11T06:55:33.005Z,96522.72
2023-01-11T06:57:59.616Z,96521.53
2023-01-11T07:00:26.544Z,96519.88
2023-01-11T07:02:53.095Z,96522.16
2023-01-11T07:05:19.977Z,96526.28
2023-01-11T07:07:46.578Z,96521.84
2023-01-11T07:10:14.501Z,96520.94
2023-01-11T07:12:41.172Z,96522.38
2023-01-11T07:15:08.608Z,96520.28
2023-01-11T07:17:35.433Z,96525.16
2023-01-11T07:20:02.280Z,96519.28
2023-01-11T07:22:28.794Z,96519.66
2023-01-11T07:24:55.371Z,96520.59
2023-01-11T07:27:21.905Z,96522.03
2023-01-11T07:29:48.467Z,96510.97
2023-01-11T07:32:14.989Z,96524.66
2023-01-11T07:34:41.550Z,96522.44
2023-01-11T07:37:28.076Z,96522.94
2023-01-11T07:39:55.854Z,96525.66
2023-01-11T07:42:40.621Z,96533.72
2023-01-11T07:45:07.467Z,96529.50
2023-01-11T07:47:33.998Z,96534.78
2023-01-11T07:50:00.565Z,96530.41
2023-01-11T07:52:27.118Z,96532.97
2023-01-11T07:54:53.649Z,96538.72
2023-01-11T07:57:20.201Z,96533.69
2023-01-11T07:59:46.732Z,96536.69
2023-01-11T08:02:13.257Z,96543.53
2023-01-11T08:04:39.824Z,96543.97
2023-01-11T08:07:06.293Z,96540.59
2023-01-11T08:09:32.891Z,96530.34
2023-01-11T08:12:17.959Z,96521.91
2023-01-11T08:14:44.628Z,96522.59
2023-01-11T08:17:12.580Z,96517.13
2023-01-11T08:19:39.279Z,96517.88
2023-01-11T08:22:06.187Z,96510.41
2023-01-11T08:24:32.769Z,96496.31
2023-01-11T08:26:59.294Z,96511.47
2023-01-11T08:29:25.852Z,96511.44
2023-01-11T08:31:52.483Z,96512.88
2023-01-11T08:34:19.013Z,96512.66
2023-01-11T08:36:45.569Z,96515.09
2023-01-11T08:39:12.605Z,96510.69
2023-01-11T08:41:39.283Z,96503.41
2023-01-11T08:44:06.052Z,96495.56
2023-01-11T08:46:34.323Z,96496.34
2023-01-11T08:49:01.427Z,96499.13
2023-01-11T08:51:27.912Z,96503.53
2023-01-11T08:53:54.539Z,96509.25
2023-01-11T08:56:21.109Z,96515.63
2023-01-11T08:58:47.628Z,96511.03
2023-01-11T09:01:14.177Z,96526.66
2023-01-11T09:03:40.740Z,96532.94
2023-01-11T09:06:07.432Z,96527.94
2023-01-11T09:08:33.931Z,96542.16
2023-01-11T09:11:00.759Z,96543.97
2023-01-11T09:13:27.587Z,96548.19
2023-01-11T09:15:57.598Z,96542.16
2023-01-11T09:18:26.939Z,96540.03
2023-01-11T09:20:54.343Z,96530.78
2023-01-11T09:23:20.999Z,96519.53
2023-01-11T09:25:47.511Z,96515.00
2023-01-11T09:28:14.223Z,96504.50
2023-01-11T09:30:40.758Z,96495.81
2023-01-11T09:33:07.293Z,96492.59
2023-01-11T09:35:35.003Z,96491.88
2023-01-11T09:38:02.692Z,96490.72
2023-01-11T09:40:37.029Z,96486.84
2023-01-11T09:43:07.331Z,96473.94
2023-01-11T09:45:35.512Z,96472.66
2023-01-11T09:48:15.593Z,96469.09
2023-01-11T09:50:45.637Z,96458.81
2023-01-11T09:53:31.654Z,96459.13
2023-01-11T09:56:01.455Z,96448.28
2023-01-11T09:58:50.895Z,96444.94
2023-01-11T10:01:27.828Z,96446.69
2023-01-11T10:03:58.295Z,96437.78
2023-01-11T10:06:33.465Z,96445.88
2023-01-11T10:18:33.921Z,96439.63
2023-01-11T10:18:40.174Z,96431.09
2023-01-11T10:21:05.642Z,96420.69
2023-01-11T10:23:54.283Z,96422.16
2023-01-11T10:26:28.832Z,96429.06
2023-01-11T10:29:24.260Z,96416.94
2023-01-11T10:32:02.408Z,96410.63
2023-01-11T10:34:56.851Z,96403.47
2023-01-11T10:37:42.879Z,96398.31
2023-01-11T10:40:38.014Z,96398.97
2023-01-11T10:43:10.034Z,96394.66
2023-01-11T10:45:43.621Z,96388.81
2023-01-11T10:48:20.806Z,96388.22
2023-01-11T10:50:57.329Z,96383.31
2023-01-11T10:53:28.878Z,96390.03
2023-01-11T10:55:55.378Z,96378.25
2023-01-11T10:58:31.002Z,96390.00
2023-01-11T11:01:24.562Z,96377.47
2023-01-11T11:03:51.069Z,96382.47
2023-01-11T11:06:17.586Z,96377.56
2023-01-11T11:08:44.646Z,96384.41
2023-01-11T11:11:37.543Z,96383.31
2023-01-11T11:14:12.407Z,96379.25
2023-01-11T11:16:51.136Z,96382.84
2023-01-11T11:19:21.265Z,96381.75
2023-01-11T11:21:48.839Z,96386.31
2023-01-11T11:24:20.631Z,96377.00
2023-01-11T11:26:52.287Z,96375.53
2023-01-11T11:29:23.310Z,96375.25
2023-01-11T11:31:50.937Z,96382.41
2023-01-11T11:34:18.927Z,96376.09
2023-01-11T11:36:52.133Z,96371.31
2023-01-11T11:39:20.480Z,96367.19
2023-01-11T11:41:48.670Z,96357.34
2023-01-11T11:44:17.371Z,96347.50
2023-01-11T11:46:56.267Z,96344.84
2023-01-11T11:49:22.811Z,96350.03
2023-01-11T11:51:50.809Z,96344.00
2023-01-11T11:54:43.854Z,96352.69
2023-01-11T11:57:20.832Z,96354.75
2023-01-11T11:59:48.854Z,96348.88
2023-01-11T12:02:22.335Z,96346.06
2023-01-11T12:04:49.615Z,96331.13
2023-01-11T12:07:18.562Z,96332.47
2023-01-11T12:09:47.846Z,96334.41
2023-01-11T12:12:19.323Z,96325.38
2023-01-11T12:15:05.816Z,96325.06
2023-01-11T12:17:32.317Z,96326.25
2023-01-11T12:19:58.926Z,96326.66
2023-01-11T12:22:27.132Z,96329.63
2023-01-11T12:25:02.853Z,96325.44
2023-01-11T12:27:47.354Z,96327.13
2023-01-11T12:30:24.718Z,96327.66
2023-01-11T12:33:10.035Z,96320.97
2023-01-11T12:35:36.559Z,96319.22
2023-01-11T12:38:03.008Z,96317.81
2023-01-11T12:40:47.985Z,96302.94
2023-01-11T12:43:35.283Z,96302.22
2023-01-11T12:46:01.832Z,96306.41
2023-01-11T12:48:38.400Z,96296.56
2023-01-11T12:51:13.895Z,96291.03
2023-01-11T12:53:56.885Z,96289.03
2023-01-11T12:56:31.310Z,96276.28
2023-01-11T12:59:09.860Z,96276.81
2023-01-11T13:01:39.427Z,96274.97
2023-01-11T13:04:14.744Z,96278.50
2023-01-11T13:06:45.296Z,96269.31
2023-01-11T13:09:20.869Z,96269.28
2023-01-11T13:11:48.846Z,96270.75
2023-01-11T13:14:29.595Z,96268.53
2023-01-11T13:17:11.361Z,96266.34
2023-01-11T13:20:01.265Z,96268.97
2023-01-11T13:22:33.629Z,96265.78
2023-01-11T13:25:02.002Z,96263.00
2023-01-11T13:27:31.801Z,96264.13
2023-01-11T13:30:00.551Z,96257.75
2023-01-11T13:32:32.936Z,96265.28
2023-01-11T13:35:20.186Z,96268.88
2023-01-11T13:38:05.392Z,96263.28
2023-01-11T13:40:35.678Z,96271.63
2023-01-11T13:43:08.780Z,96273.09
2023-01-11T13:45:37.064Z,96275.75
2023-01-11T13:48:18.259Z,96279.09
2023-01-11T13:50:48.549Z,96263.69
2023-01-11T13:53:33.942Z,96274.25
2023-01-11T13:56:06.396Z,96269.09
2023-01-11T13:58:40.351Z,96269.94
2023-01-11T14:01:08.300Z,96269.94
2023-01-11T14:03:47.174Z,96272.13
2023-01-11T14:06:25.802Z,96286.69
2023-01-11T14:09:00.571Z,96283.63
2023-01-11T14:11:36.356Z,96268.59
2023-01-11T14:14:15.521Z,96264.31
2023-01-11T14:20:33.368Z,96264.88
2023-01-11T14:23:13.858Z,96262.91
2023-01-11T14:25:43.399Z,96270.81
2023-01-11T14:28:15.828Z,96266.63
2023-01-11T14:30:42.402Z,96273.78
2023-01-11T14:33:17.800Z,96275.13
2023-01-11T14:36:00.406Z,96264.00
2023-01-11T14:38:35.831Z,96269.41
2023-01-11T14:41:11.271Z,96283.25
2023-01-11T14:43:40.779Z,96283.06
2023-01-11T14:46:25.928Z,96282.16
2023-01-11T14:48:52.453Z,96283.38
2023-01-11T14:51:32.684Z,96282.91
2023-01-11T14:54:08.604Z,96296.25
2023-01-11T14:56:36.839Z,96288.59
2023-01-11T14:59:07.455Z,96295.09
2023-01-11T15:01:52.751Z,96291.72
2023-01-11T15:04:22.834Z,96292.25
2023-01-11T15:06:54.436Z,96300.19
2023-01-11T15:09:39.700Z,96300.44
2023-01-11T15:12:11.664Z,96296.88
2023-01-11T15:14:38.240Z,96299.31
2023-01-11T15:17:23.400Z,96297.06
2023-01-11T15:19:51.559Z,96293.63
2023-01-11T15:22:31.039Z,96294.94
2023-01-11T15:24:59.183Z,96298.91
2023-01-11T15:27:27.555Z,96301.19
2023-01-11T15:29:55.838Z,96299.91
2023-01-11T15:32:27.613Z,96299.41
2023-01-11T15:34:54.309Z,96300.03
2023-01-11T15:37:20.784Z,96291.28
2023-01-11T15:39:59.638Z,96298.13
2023-01-11T15:42:55.511Z,96300.03
2023-01-11T15:45:24.851Z,96302.56
2023-01-11T15:47:51.348Z,96297.41
2023-01-11T15:50:17.866Z,96296.59
2023-01-11T15:53:03.019Z,96300.50
2023-01-11T15:56:07.900Z,96302.56
2023-01-11T15:59:05.073Z,96297.28
2023-01-11T16:01:43.553Z,96303.50
2023-01-11T16:04:23.836Z,96305.53
2023-01-11T16:06:56.571Z,96310.31
2023-01-11T16:09:27.577Z,96319.84
2023-01-11T16:12:12.868Z,96324.25
2023-01-11T16:14:57.968Z,96321.13
2023-01-11T16:17:25.042Z,96328.53
2023-01-11T16:19:56.708Z,96327.94
2023-01-11T16:22:25.868Z,96329.94
2023-01-11T16:24:57.608Z,96324.41
2023-01-11T16:27:26.384Z,96322.72
2023-01-11T16:29:53.052Z,96329.88
2023-01-11T16:32:19.581Z,96318.88
2023-01-11T16:34:50.240Z,96315.53
2023-01-11T16:37:22.671Z,96328.66
2023-01-11T16:39:51.728Z,96324.34
2023-01-11T16:42:18.229Z,96320.78
2023-01-11T16:45:01.597Z,96319.94
2023-01-11T16:47:28.192Z,96318.59
2023-01-11T16:50:13.311Z,96315.97
2023-01-11T16:52:45.754Z,96311.56
2023-01-11T16:55:20.159Z,96303.91
2023-01-11T16:57:49.450Z,96299.34
2023-01-11T17:00:22.179Z,96305.53
2023-01-11T17:02:50.310Z,96297.03
2023-01-11T17:05:23.849Z,96296.81
2023-01-11T17:07:50.469Z,96296.72
2023-01-11T17:10:22.460Z,96296.09
2023-01-11T17:13:01.496Z,96299.88
2023-01-11T17:15:34.171Z,96295.19
2023-01-11T17:18:03.999Z,96290.91
2023-01-11T17:20:31.412Z,96287.00
2023-01-11T17:22:58.380Z,96285.56
2023-01-11T17:25:29.586Z,96298.44
2023-01-11T17:28:13.218Z,96294.88
2023-01-11T17:30:39.782Z,96300.56
2023-01-11T17:33:06.332Z,96295.41
2023-01-11T17:35:39.167Z,96297.41
2023-01-11T17:38:06.968Z,96293.41
2023-01-11T17:40:38.218Z,96289.94
2023-01-11T17:43:31.841Z,96297.94
2023-01-11T17:45:58.866Z,96303.81
2023-01-11T17:48:29.427Z,96302.56
2023-01-11T17:50:57.939Z,96298.59
2023-01-11T17:53:26.988Z,96307.53
2023-01-11T17:55:55.463Z,96308.41
2023-01-11T17:58:24.038Z,96310.78
2023-01-11T18:01:09.179Z,96309.50
2023-01-11T18:03:46.442Z,96307.00
2023-01-11T18:06:15.952Z,96310.78
2023-01-11T18:08:47.023Z,96320.06
2023-01-11T18:11:21.398Z,96313.41
2023-01-11T18:13:50.829Z,96320.72
2023-01-11T18:16:19.421Z,96319.97
2023-01-11T18:18:47.782Z,96318.69
2023-01-11T18:21:26.554Z,96312.09
2023-01-11T18:24:11.379Z,96308.91
2023-01-11T18:26:39.378Z,96318.72
2023-01-11T18:29:05.957Z,96316.47
2023-01-11T18:31:32.828Z,96309.91
2023-01-11T18:33:59.425Z,96308.34
2023-01-11T18:36:27.616Z,96308.59
2023-01-11T18:38:54.140Z,96309.66
2023-01-11T18:41:39.108Z,96307.84
2023-01-11T18:44:06.048Z,96309.41
2023-01-11T18:46:32.698Z,96308.47
2023-01-11T18:48:59.204Z,96306.09
2023-01-11T18:51:33.826Z,96309.06
2023-01-11T18:54:00.351Z,96311.69
2023-01-11T18:56:26.890Z,96310.41
2023-01-11T18:58:53.416Z,96305.41
2023-01-11T19:01:20.022Z,96307.19
2023-01-11T19:03:46.556Z,96310.06
2023-01-11T19:06:13.301Z,96311.22
2023-01-11T19:08:40.001Z,96310.63
2023-01-11T19:11:06.571Z,96308.97
2023-01-11T19:13:33.095Z,96306.34
2023-01-11T19:16:02.486Z,96302.34
2023-01-11T19:18:29.378Z,96301.09
2023-01-11T19:21:00.686Z,96304.44
2023-01-11T19:23:27.352Z,96300.28
2023-01-11T19:25:57.999Z,96298.94
2023-01-11T19:28:24.473Z,96298.47
2023-01-11T19:30:51.089Z,96304.22
2023-01-11T19:33:17.638Z,96293.31
2023-01-11T19:35:44.493Z,96295.34
2023-01-11T19:38:11.104Z,96289.25
2023-01-11T19:40:37.934Z,96284.00
2023-01-11T19:43:04.511Z,96294.19
2023-01-11T19:45:31.085Z,96287.72
2023-01-11T19:47:58.693Z,96282.34
2023-01-11T19:50:25.200Z,96292.25
2023-01-11T19:52:51.796Z,96283.66
2023-01-11T19:55:18.359Z,96290.34
2023-01-11T19:57:45.071Z,96288.81
2023-01-11T20:00:14.260Z,96293.09
2023-01-11T20:02:41.102Z,96295.13
2023-01-11T20:05:07.769Z,96292.38
2023-01-11T20:07:34.552Z,96275.88
2023-01-11T20:10:01.136Z,96278.16
2023-01-11T20:12:27.672Z,96285.34
2023-01-11T20:14:57.756Z,96281.84
2023-01-11T20:17:24.354Z,96278.03
2023-01-11T20:19:54.633Z,96284.38
2023-01-11T20:22:22.172Z,96288.09
2023-01-11T20:24:48.767Z,96290.34
2023-01-11T20:27:15.368Z,96289.41
2023-01-11T20:29:43.886Z,96295.72
2023-01-11T20:32:34.990Z,96292.88
2023-01-11T20:34:57.278Z,96294.06
2023-01-11T20:37:23.852Z,96301.84
2023-01-11T20:39:50.502Z,96309.38
2023-01-11T20:42:17.001Z,96314.66
2023-01-11T20:44:43.551Z,96321.47
2023-01-11T20:47:10.124Z,96318.84
2023-01-11T20:49:36.766Z,96310.94
2023-01-11T20:52:03.368Z,96311.41
2023-01-11T20:54:29.916Z,96306.25
2023-01-11T20:57:02.078Z,96306.50
2023-01-11T20:59:28.771Z,96311.03
2023-01-11T21:01:55.360Z,96314.97
2023-01-11T21:04:21.929Z,96309.84
2023-01-11T21:06:48.520Z,96305.44
2023-01-11T21:09:16.404Z,96308.41
2023-01-11T21:11:44.200Z,96316.22
2023-01-11T21:14:13.949Z,96314.75
2023-01-11T21:16:41.566Z,96316.09
2023-01-11T21:19:10.588Z,96312.09
2023-01-11T21:21:37.165Z,96319.53
2023-01-11T21:24:04.213Z,96319.66
2023-01-11T21:26:31.748Z,96318.84
2023-01-11T21:28:59.776Z,96322.16
2023-01-11T21:31:27.581Z,96320.50
2023-01-11T21:33:54.535Z,96331.03
2023-01-11T21:36:22.621Z,96333.06
2023-01-11T21:38:49.224Z,96327.91
2023-01-11T21:41:16.973Z,96333.31
2023-01-11T21:43:44.911Z,96333.91
2023-01-11T21:46:12.589Z,96331.50
2023-01-11T21:48:39.183Z,96350.91
2023-01-11T21:51:11.464Z,96348.03
2023-01-11T21:53:38.332Z,96340.59
2023-01-11T21:56:06.959Z,96345.88
2023-01-11T21:58:34.174Z,96338.22
2023-01-11T22:01:08.614Z,96342.03
2023-01-11T22:03:35.461Z,96343.72
2023-01-11T22:06:02.684Z,96339.06
2023-01-11T22:08:29.741Z,96351.84
2023-01-11T22:10:57.285Z,96347.78
2023-01-11T22:13:23.838Z,96352.69
2023-01-11T22:15:50.395Z,96360.69
2023-01-11T22:18:17.049Z,96358.19
2023-01-11T22:20:43.623Z,96354.94
2023-01-11T22:23:10.273Z,96360.19
2023-01-11T22:25:36.819Z,96366.41
2023-01-11T22:28:04.051Z,96357.59
2023-01-11T22:30:30.570Z,96357.56
2023-01-11T22:32:59.151Z,96363.91
2023-01-11T22:35:25.809Z,96368.09
2023-01-11T22:37:52.378Z,96365.47
2023-01-11T22:40:18.910Z,96369.53
2023-01-11T22:42:45.449Z,96365.38
2023-01-11T22:45:11.981Z,96365.47
2023-01-11T22:47:38.569Z,96375.38
2023-01-11T22:50:05.453Z,96363.41
2023-01-11T22:52:33.019Z,96365.47
2023-01-11T22:54:59.556Z,96360.06
2023-01-11T22:57:26.060Z,96359.47
2023-01-11T22:59:52.584Z,96364.00
2023-01-11T23:02:19.108Z,96366.72
2023-01-11T23:04:45.697Z,96380.63
2023-01-11T23:07:12.193Z,96378.00
2023-01-11T23:09:38.769Z,96377.84
2023-01-11T23:12:23.996Z,96387.06
2023-01-11T23:14:50.509Z,96387.06
2023-01-11T23:17:19.006Z,96381.44
2023-01-11T23:19:45.673Z,96382.56
2023-01-11T23:22:15.234Z,96383.16
2023-01-11T23:24:42.636Z,96382.63
2023-01-11T23:27:09.211Z,96384.31
2023-01-11T23:29:35.985Z,96386.56
2023-01-11T23:32:02.732Z,96390.84
2023-01-11T23:34:29.354Z,96391.81
2023-01-11T23:36:55.902Z,96396.22
2023-01-11T23:39:23.845Z,96399.59
2023-01-11T23:42:09.009Z,96405.56
2023-01-11T23:44:35.973Z,96397.66
2023-01-11T23:47:20.859Z,96404.59
2023-01-11T23:50:03.051Z,96398.22
2023-01-11T23:52:30.672Z,96399.16
2023-01-11T23:54:57.527Z,96403.09
2023-01-11T23:57:24.909Z,96408.69
2023-01-11T23:59:51.409Z,96413.44
